Time;durP1;ratioP1;P1;durP2;ratioP2;P2;SDS_P1;SDS_P2;PMS_P1;PMS_P2;Temp;Humidity;BMP_temperature;BMP_pressure;BME280_temperature;BME280_humidity;BME280_pressure;Samples;Min_cycle;Max_cycle;Signal;HPM_P1;HPM_P2
2023/01/19 00:01:24;;;;;;;36.70;5.68;;;;;;;13.04;44.70;94100.53;4958392;28;20031;-76
2023/01/19 00:03:50;;;;;;;38.85;5.25;;;;;;;12.74;44.82;94075.63;4946855;28;20494;-76
2023/01/19 00:06:16;;;;;;;47.38;6.47;;;;;;;13.08;44.68;94109.44;4928096;29;20027;-76
2023/01/19 00:08:44;;;;;;;47.83;5.82;;;;;;;12.43;44.33;94040.44;4927454;29;20031;-76
2023/01/19 00:11:11;;;;;;;33.05;6.63;;;;;;;12.45;45.27;94032.91;4922220;29;20035;-76
2023/01/19 00:13:38;;;;;;;56.83;6.97;;;;;;;12.64;45.28;94070.66;4914950;29;20119;-76
2023/01/19 00:16:03;;;;;;;40.15;6.13;;;;;;;12.55;45.22;94061.88;4932578;29;20039;-76
2023/01/19 00:18:29;;;;;;;53.38;6.10;;;;;;;12.67;45.37;94067.34;4927379;29;20052;-76
2023/01/19 00:20:54;;;;;;;49.45;5.95;;;;;;;12.65;44.08;94066.91;4934284;29;20027;-76
2023/01/19 00:23:20;;;;;;;41.90;5.95;;;;;;;12.47;44.45;94033.41;4954356;28;20138;-76
2023/01/19 00:25:47;;;;;;;49.10;7.05;;;;;;;13.01;44.17;94115.25;4955388;28;20031;-76
2023/01/19 00:28:15;;;;;;;57.90;6.20;;;;;;;12.33;44.31;94010.41;4924724;29;20038;-76
2023/01/19 00:30:41;;;;;;;38.35;5.75;;;;;;;13.19;44.51;94131.25;4950805;28;20049;-76
2023/01/19 00:33:08;;;;;;;39.20;4.05;;;;;;;13.19;44.80;94109.94;4942417;28;20058;-76
2023/01/19 00:35:34;;;;;;;34.55;4.35;;;;;;;13.27;44.60;94135.78;4935375;29;20122;-76
2023/01/19 00:38:01;;;;;;;49.25;6.20;;;;;;;13.07;44.78;94118.53;4942591;28;20114;-76
2023/01/19 00:40:26;;;;;;;58.83;6.07;;;;;;;13.09;45.13;94101.16;4947698;28;20401;-76
2023/01/19 00:42:53;;;;;;;51.90;5.82;;;;;;;13.09;45.52;94142.97;4926373;29;20047;-76
2023/01/19 00:45:20;;;;;;;43.67;5.65;;;;;;;12.90;44.92;94092.69;4935701;28;20138;-76
2023/01/19 00:47:47;;;;;;;63.42;7.25;;;;;;;12.59;44.54;94039.66;4920437;29;20131;-76
2023/01/19 00:50:15;;;;;;;48.25;6.95;;;;;;;13.13;45.08;94130.59;4935460;29;20043;-76
2023/01/19 00:52:42;;;;;;;59.13;8.30;;;;;;;13.10;44.43;94125.91;4935714;29;20146;-76
2023/01/19 00:55:10;;;;;;;52.15;6.35;;;;;;;13.07;44.85;94131.84;4940906;28;20114;-76
2023/01/19 00:57:35;;;;;;;44.78;4.93;;;;;;;12.97;44.77;94116.19;4949062;28;20035;-76
2023/01/19 01:00:05;;;;;;;55.38;6.55;;;;;;;13.34;44.20;94138.75;4918662;29;20701;-76
2023/01/19 01:02:31;;;;;;;46.65;5.85;;;;;;;13.43;43.71;94132.28;4923944;29;20066;-76
2023/01/19 01:04:57;;;;;;;48.33;6.25;;;;;;;13.35;44.19;94079.06;4949992;28;20032;-77
2023/01/19 01:07:23;;;;;;;41.63;6.22;;;;;;;13.47;43.92;94111.16;4918196;29;20024;-76
2023/01/19 01:09:49;;;;;;;54.13;5.53;;;;;;;13.57;43.12;94113.50;4935521;28;20035;-76
2023/01/19 01:12:15;;;;;;;61.70;7.85;;;;;;;13.73;42.93;94113.75;4935868;28;20031;-75
2023/01/19 01:14:40;;;;;;;40.80;5.63;;;;;;;13.28;42.95;94023.63;4935530;28;20413;-76
2023/01/19 01:17:10;;;;;;;51.85;5.00;;;;;;;13.80;42.82;94103.38;4935162;29;20100;-77
2023/01/19 01:19:36;;;;;;;56.63;5.75;;;;;;;13.73;43.00;94087.13;4918390;29;20135;-77
2023/01/19 01:22:02;;;;;;;55.78;6.70;;;;;;;13.50;43.23;94084.66;4918345;29;20470;-76
2023/01/19 01:24:28;;;;;;;38.42;4.40;;;;;;;13.60;42.65;94067.53;4940088;28;20058;-75
2023/01/19 01:26:53;;;;;;;44.20;6.25;;;;;;;13.41;42.49;94057.28;4949200;29;20474;-75
2023/01/19 01:29:19;;;;;;;48.78;5.35;;;;;;;13.51;42.48;94074.78;4934827;28;20570;-76
2023/01/19 01:31:44;;;;;;;40.35;5.45;;;;;;;13.73;42.54;94079.13;4921822;29;20027;-75
2023/01/19 01:34:09;;;;;;;34.78;5.38;;;;;;;13.51;42.28;94058.78;4948467;28;20035;-75
2023/01/19 01:36:35;;;;;;;35.53;4.78;;;;;;;13.41;42.12;94048.50;4917582;29;20510;-75
2023/01/19 01:39:00;;;;;;;42.90;4.88;;;;;;;13.59;42.26;94075.84;4934708;28;20036;-75
2023/01/19 01:41:26;;;;;;;34.45;4.60;;;;;;;13.10;42.06;94035.41;4934726;28;20039;-75
2023/01/19 01:43:57;;;;;;;43.15;4.35;;;;;;;13.51;41.93;94061.47;4917562;29;20094;-75
2023/01/19 01:46:23;;;;;;;51.58;6.35;;;;;;;13.74;41.93;94078.00;4934729;28;20027;-75
2023/01/19 01:49:01;;;;;;;46.80;5.13;;;;;;;13.96;41.79;94114.31;4934501;28;20040;-75
2023/01/19 01:51:41;;;;;;;52.92;5.38;;;;;;;13.98;40.97;94114.75;4917407;29;20038;-76
2023/01/19 01:54:28;;;;;;;50.25;5.13;;;;;;;13.67;41.38;94057.19;4917066;29;20043;-76
2023/01/19 01:56:59;;;;;;;39.00;4.88;;;;;;;13.76;40.64;94054.47;4917137;29;20059;-76
2023/01/19 01:59:33;;;;;;;38.10;4.82;;;;;;;13.74;41.25;94057.47;4934540;28;20499;-76
2023/01/19 02:04:53;;;;;;;44.33;4.90;;;;;;;13.72;41.22;94081.00;4934551;28;20047;-76
2023/01/19 02:13:20;;;;;;;39.13;4.13;;;;;;;13.82;40.52;94050.53;4934173;29;20050;-78
2023/01/19 02:15:54;;;;;;;38.17;3.50;;;;;;;14.16;40.49;94103.69;4922100;29;20134;-78
2023/01/19 02:18:25;;;;;;;36.40;4.45;;;;;;;13.82;40.21;94075.31;4946698;28;20415;-78
2023/01/19 02:21:11;;;;;;;38.70;3.55;;;;;;;14.20;40.47;94103.81;4940563;29;20081;-78
2023/01/19 02:23:38;;;;;;;29.85;5.28;;;;;;;14.15;40.25;94102.13;4926253;29;20104;-78
2023/01/19 02:26:04;;;;;;;26.25;3.65;;;;;;;14.18;40.31;94087.38;4933258;28;20581;-78
2023/01/19 02:28:30;;;;;;;44.00;4.97;;;;;;;13.93;40.23;94085.63;4933451;28;20039;-78
2023/01/19 02:30:56;;;;;;;33.38;4.28;;;;;;;14.03;39.70;94032.72;4942547;28;20470;-75
2023/01/19 02:33:21;;;;;;;37.08;3.97;;;;;;;14.19;39.63;94063.03;4934993;29;20034;-75
2023/01/19 02:35:49;;;;;;;42.45;5.38;;;;;;;14.13;39.70;94063.56;4935321;29;20034;-77
2023/01/19 02:38:17;;;;;;;41.53;4.18;;;;;;;14.38;39.17;94092.00;4942910;29;20124;-77
2023/01/19 02:40:44;;;;;;;35.10;4.38;;;;;;;14.37;39.29;94103.72;4916022;29;20044;-77
2023/01/19 02:43:10;;;;;;;38.88;4.57;;;;;;;14.31;39.71;94070.34;4915837;29;20038;-78
2023/01/19 02:45:38;;;;;;;40.67;4.65;;;;;;;14.34;39.66;94085.72;4933252;29;20483;-79
2023/01/19 02:48:04;;;;;;;40.05;4.75;;;;;;;14.15;39.63;94053.34;4932766;28;20031;-78
2023/01/19 02:50:49;;;;;;;41.45;5.07;;;;;;;14.36;39.40;94098.72;4942442;28;20031;-78
2023/01/19 02:53:36;;;;;;;37.47;3.92;;;;;;;14.34;39.60;94095.63;4939653;28;20469;-78
2023/01/19 02:56:09;;;;;;;37.38;4.40;;;;;;;14.34;39.61;94084.94;4915785;29;20040;-78
2023/01/19 02:58:41;;;;;;;41.30;5.78;;;;;;;14.33;39.58;94073.50;4932555;29;20044;-78
2023/01/19 03:01:37;;;;;;;40.33;4.80;;;;;;;14.18;40.04;94082.84;4933055;28;20031;-78
2023/01/19 03:04:32;;;;;;;25.95;3.38;;;;;;;13.93;39.99;94048.31;4933951;28;20039;-78
2023/01/19 03:07:24;;;;;;;45.30;5.07;;;;;;;14.19;40.23;94081.72;4934513;29;20029;-78
2023/01/19 03:10:00;;;;;;;31.13;4.03;;;;;;;14.09;39.91;94095.41;4934916;29;20035;-78
2023/01/19 03:12:30;;;;;;;29.80;4.20;;;;;;;14.14;40.01;94065.91;4942557;29;20495;-78
2023/01/19 03:15:00;;;;;;;37.08;4.43;;;;;;;13.70;39.91;94016.59;4942532;29;20027;-79
2023/01/19 03:17:29;;;;;;;41.50;5.28;;;;;;;14.14;39.56;94084.56;4951537;29;20050;-79
2023/01/19 03:19:56;;;;;;;45.60;5.60;;;;;;;14.02;39.88;94067.69;4941345;28;20052;-77
2023/01/19 03:22:28;;;;;;;38.10;3.63;;;;;;;13.79;40.05;94028.00;4932771;28;20027;-78
2023/01/19 03:24:58;;;;;;;46.75;5.20;;;;;;;13.62;39.97;93996.09;4915493;29;20425;-78
2023/01/19 03:27:27;;;;;;;50.15;4.97;;;;;;;13.75;40.00;94036.94;4932703;29;20083;-79
2023/01/19 03:30:07;;;;;;;39.47;4.53;;;;;;;13.62;39.64;94008.63;4915429;29;20047;-79
2023/01/19 03:32:43;;;;;;;45.78;4.40;;;;;;;14.10;39.32;94074.88;4932535;28;20055;-79
2023/01/19 03:35:13;;;;;;;48.05;4.75;;;;;;;13.98;39.67;94046.22;4945459;28;20031;-78
2023/01/19 03:37:43;;;;;;;58.78;5.03;;;;;;;14.14;39.48;94063.25;4936650;29;20042;-79
2023/01/19 03:40:10;;;;;;;51.13;5.57;;;;;;;14.09;39.73;94071.44;4934349;29;20193;-78
2023/01/19 03:42:37;;;;;;;38.53;5.50;;;;;;;13.76;39.26;94014.50;4934159;29;20042;-79
2023/01/19 03:45:03;;;;;;;39.15;5.32;;;;;;;14.11;39.45;94055.88;4928545;29;20439;-78
2023/01/19 03:47:29;;;;;;;43.72;4.57;;;;;;;14.12;39.50;94075.31;4923560;29;20031;-79
2023/01/19 03:49:56;;;;;;;50.45;5.45;;;;;;;13.84;39.21;94003.81;4942909;29;20038;-79
2023/01/19 03:52:28;;;;;;;39.03;5.40;;;;;;;13.51;39.43;93965.56;4921778;29;20545;-79
2023/01/19 03:54:53;;;;;;;61.63;4.95;;;;;;;13.81;39.43;94020.44;4932157;28;20391;-79
2023/01/19 03:57:19;;;;;;;62.33;5.60;;;;;;;14.17;38.93;94053.81;4918440;29;20106;-79
2023/01/19 03:59:44;;;;;;;42.08;5.65;;;;;;;13.96;38.57;94013.03;4919064;29;20110;-79
2023/01/19 04:02:09;;;;;;;44.13;6.28;;;;;;;13.94;38.64;94004.56;4918938;29;20028;-79
2023/01/19 04:04:35;;;;;;;58.47;5.72;;;;;;;14.13;38.31;94035.00;4936077;28;20498;-79
2023/01/19 04:07:00;;;;;;;46.55;6.10;;;;;;;14.26;38.74;94063.34;4931154;29;20130;-79
2023/01/19 04:09:26;;;;;;;66.30;7.30;;;;;;;14.35;38.01;94043.81;4937752;29;20046;-79
2023/01/19 04:11:51;;;;;;;57.88;7.03;;;;;;;14.29;37.77;94040.56;4938021;29;20462;-79
2023/01/19 04:14:17;;;;;;;63.33;7.18;;;;;;;14.23;37.92;94057.84;4955345;28;20039;-79
2023/01/19 04:16:42;;;;;;;53.53;6.90;;;;;;;14.23;37.84;94034.66;4943133;28;20051;-80
2023/01/19 04:19:08;;;;;;;59.42;8.18;;;;;;;14.34;37.16;94095.63;4948033;28;20436;-80
2023/01/19 04:21:34;;;;;;;63.47;6.78;;;;;;;14.00;36.95;93987.25;4925383;29;20510;-79
2023/01/19 04:23:59;;;;;;;57.83;7.07;;;;;;;14.35;37.42;94068.59;4935760;28;20075;-79
2023/01/19 04:26:25;;;;;;;62.28;7.25;;;;;;;14.02;37.23;93955.75;4936116;28;20063;-79
2023/01/19 04:28:50;;;;;;;67.95;7.20;;;;;;;14.43;37.14;94027.78;4935723;28;20558;-80
2023/01/19 04:31:18;;;;;;;80.80;8.38;;;;;;;14.43;37.07;94005.66;4935693;28;20040;-80
2023/01/19 04:33:43;;;;;;;75.63;7.78;;;;;;;14.12;37.47;93979.34;4918559;29;20525;-78
2023/01/19 04:36:08;;;;;;;71.72;7.70;;;;;;;14.38;36.79;94013.84;4918326;29;20028;-78
2023/01/19 04:38:34;;;;;;;72.50;9.30;;;;;;;14.35;36.63;94071.25;4918133;29;20046;-79
2023/01/19 04:41:00;;;;;;;79.45;8.38;;;;;;;14.05;36.55;93979.06;4918248;29;20110;-79
2023/01/19 04:43:25;;;;;;;70.40;8.98;;;;;;;14.01;36.86;93943.53;4918427;29;20035;-79
2023/01/19 04:45:51;;;;;;;80.88;8.48;;;;;;;14.45;36.62;94030.13;4918344;29;20126;-79
2023/01/19 04:48:17;;;;;;;73.80;7.85;;;;;;;14.44;36.56;94037.34;4935855;28;20046;-79
2023/01/19 04:50:43;;;;;;;67.75;8.13;;;;;;;14.49;36.46;94039.84;4917897;29;20045;-80
2023/01/19 04:53:08;;;;;;;53.90;7.95;;;;;;;14.40;36.74;94017.00;4918026;29;20040;-79
2023/01/19 04:55:33;;;;;;;65.72;9.43;;;;;;;14.07;36.68;94006.97;4935120;28;20044;-79
2023/01/19 04:57:59;;;;;;;64.57;8.57;;;;;;;14.36;36.64;94030.16;4917684;29;20028;-78
2023/01/19 05:00:25;;;;;;;63.25;8.88;;;;;;;14.32;36.50;94029.25;4944450;28;20332;-78
2023/01/19 05:02:51;;;;;;;62.35;9.13;;;;;;;14.35;37.07;94039.25;4936409;29;20042;-78
2023/01/19 05:05:17;;;;;;;51.92;6.95;;;;;;;14.07;37.03;94016.84;4944839;28;20443;-78
2023/01/19 05:07:42;;;;;;;72.10;8.32;;;;;;;14.30;36.66;94074.91;4923262;29;20035;-78
2023/01/19 05:10:08;;;;;;;76.57;10.30;;;;;;;14.39;36.97;94076.78;4943714;28;20032;-78
2023/01/19 05:12:35;;;;;;;68.72;7.82;;;;;;;14.01;36.49;94034.94;4932616;28;20036;-79
2023/01/19 05:15:00;;;;;;;47.30;7.28;;;;;;;14.21;36.00;94047.50;4926220;29;20122;-78
2023/01/19 05:17:26;;;;;;;78.72;8.38;;;;;;;14.04;36.23;94038.81;4943896;28;20138;-78
2023/01/19 05:19:51;;;;;;;69.63;10.20;;;;;;;14.26;36.57;94081.22;4939657;28;20450;-78
2023/01/19 05:22:17;;;;;;;43.10;7.32;;;;;;;14.44;36.21;94106.69;4932594;28;20028;-77
2023/01/19 05:24:42;;;;;;;61.95;7.88;;;;;;;13.96;36.19;94013.78;4917208;29;20054;-78
2023/01/19 05:27:08;;;;;;;64.60;9.95;;;;;;;14.23;36.49;94063.19;4936363;28;20023;-78
2023/01/19 05:29:33;;;;;;;66.30;7.75;;;;;;;14.43;36.37;94094.47;4948646;28;20075;-78
2023/01/19 05:31:59;;;;;;;60.90;6.88;;;;;;;14.45;36.24;94084.25;4937127;28;20482;-78
2023/01/19 05:34:25;;;;;;;61.15;9.00;;;;;;;14.31;36.00;94059.69;4922337;28;20035;-79
2023/01/19 05:36:51;;;;;;;78.72;8.05;;;;;;;14.33;35.77;94057.50;4924331;29;20028;-78
2023/01/19 05:39:16;;;;;;;60.70;7.53;;;;;;;14.51;36.18;94080.28;4936427;28;20028;-79
2023/01/19 05:41:44;;;;;;;54.92;7.00;;;;;;;14.19;36.55;94035.59;4927305;29;20085;-79
2023/01/19 05:44:10;;;;;;;58.95;8.10;;;;;;;14.45;36.08;94075.47;4936751;28;20035;-80
2023/01/19 05:46:36;;;;;;;65.80;7.00;;;;;;;14.29;36.04;94048.56;4941395;28;20036;-78
2023/01/19 05:49:03;;;;;;;68.88;7.65;;;;;;;14.15;36.08;94054.13;4940827;28;20050;-78
2023/01/19 05:51:33;;;;;;;66.43;7.95;;;;;;;14.04;35.58;94018.28;4941276;28;20042;-81
2023/01/19 05:54:00;;;;;;;71.28;9.98;;;;;;;13.38;36.02;93930.09;4934842;28;20094;-80
2023/01/19 05:56:25;;;;;;;61.78;7.90;;;;;;;13.80;35.95;94000.25;4923655;28;20031;-78
2023/01/19 05:58:51;;;;;;;59.63;7.07;;;;;;;13.71;35.79;93956.88;4924112;28;20109;-81
2023/01/19 06:01:16;;;;;;;59.75;7.93;;;;;;;14.45;36.03;94091.47;4918834;29;20041;-79
2023/01/19 06:03:42;;;;;;;56.90;8.48;;;;;;;14.50;36.34;94085.94;4940143;28;20035;-83
2023/01/19 06:06:08;;;;;;;63.55;8.45;;;;;;;14.25;36.16;94077.00;4923474;29;20040;-78
2023/01/19 06:08:33;;;;;;;64.15;8.18;;;;;;;14.49;36.01;94103.88;4938469;28;20035;-80
2023/01/19 06:10:59;;;;;;;66.03;8.13;;;;;;;13.71;35.96;93977.41;4937593;28;20035;-80
2023/01/19 06:13:24;;;;;;;55.67;8.35;;;;;;;14.29;35.67;94049.34;4938030;28;20485;-82
2023/01/19 06:15:56;;;;;;;63.53;7.43;;;;;;;14.25;35.74;94040.44;4934514;28;20134;-82
2023/01/19 06:18:22;;;;;;;56.78;7.00;;;;;;;13.49;35.21;93911.88;4934088;28;20549;-81
2023/01/19 06:20:47;;;;;;;66.28;7.65;;;;;;;14.66;35.40;94124.31;4909609;28;20055;-80
2023/01/19 06:23:13;;;;;;;67.65;7.78;;;;;;;14.10;35.37;94011.69;4908934;28;20050;-81
2023/01/19 06:25:38;;;;;;;55.20;10.02;;;;;;;14.60;35.33;94077.56;4914863;28;21245;-79
2023/01/19 06:28:04;;;;;;;61.70;8.85;;;;;;;14.63;35.56;94076.94;4931369;28;20074;-82
2023/01/19 06:30:29;;;;;;;57.45;8.07;;;;;;;14.76;35.27;94072.44;4934651;28;20110;-83
2023/01/19 06:32:55;;;;;;;61.25;8.10;;;;;;;14.50;35.31;94046.72;4932781;28;20450;-82
2023/01/19 06:35:20;;;;;;;63.75;8.10;;;;;;;14.78;35.19;94099.59;4917736;29;20163;-81
2023/01/19 06:37:45;;;;;;;70.28;9.88;;;;;;;14.23;34.99;94033.84;4927501;28;20039;-83
2023/01/19 06:40:11;;;;;;;55.35;8.55;;;;;;;14.53;34.65;94080.75;4916493;28;20452;-82
2023/01/19 06:42:36;;;;;;;74.80;8.95;;;;;;;14.89;34.44;94106.88;4937510;28;20114;-80
2023/01/19 06:45:02;;;;;;;67.55;10.50;;;;;;;14.52;34.48;94083.75;4920547;28;20825;-82
2023/01/19 06:47:28;;;;;;;75.97;8.10;;;;;;;14.99;34.50;94127.06;4918140;28;20343;-82
2023/01/19 06:49:53;;;;;;;68.60;8.25;;;;;;;14.57;34.12;94087.00;4915530;28;20169;-80
2023/01/19 06:52:19;;;;;;;71.28;7.90;;;;;;;14.43;34.30;94059.00;4912978;29;20155;-82
2023/01/19 06:54:45;;;;;;;69.22;8.90;;;;;;;15.12;33.57;94133.22;4934302;28;20130;-83
2023/01/19 06:57:11;;;;;;;81.10;10.52;;;;;;;15.09;34.17;94166.72;4934750;28;20039;-82
2023/01/19 06:59:39;;;;;;;58.08;7.57;;;;;;;14.91;33.53;94122.56;4918339;28;20038;-83
2023/01/19 07:02:06;;;;;;;52.67;8.90;;;;;;;14.99;33.65;94143.88;4931082;28;20430;-80
2023/01/19 07:04:32;;;;;;;64.53;9.45;;;;;;;15.07;33.38;94140.34;4925819;28;20185;-79
2023/01/19 07:06:58;;;;;;;72.85;10.57;;;;;;;15.07;33.75;94164.38;4912160;28;20542;-80
2023/01/19 07:09:24;;;;;;;73.30;10.30;;;;;;;15.25;33.53;94165.03;4929004;28;20109;-79
2023/01/19 07:11:50;;;;;;;67.30;8.05;;;;;;;15.14;33.56;94136.38;4907386;28;20050;-79
2023/01/19 07:14:15;;;;;;;70.13;7.97;;;;;;;15.15;33.48;94173.44;4908902;28;20046;-80
2023/01/19 07:16:41;;;;;;;64.80;8.70;;;;;;;15.17;33.46;94106.34;4934043;28;20482;-81
2023/01/19 07:19:09;;;;;;;46.53;9.52;;;;;;;14.90;33.63;94097.75;4935681;28;20062;-80
2023/01/19 07:21:35;;;;;;;60.50;8.23;;;;;;;15.05;33.65;94123.88;4933935;28;20081;-80
2023/01/19 07:24:00;;;;;;;59.75;8.73;;;;;;;15.31;33.26;94161.06;4935452;28;20043;-78
2023/01/19 07:26:26;;;;;;;48.95;8.43;;;;;;;14.86;32.91;94106.75;4917337;29;20936;-78
2023/01/19 07:28:52;;;;;;;72.75;9.65;;;;;;;15.38;32.49;94155.97;4930634;28;20031;-78
2023/01/19 07:31:18;;;;;;;70.20;9.38;;;;;;;15.00;32.65;94115.28;4913894;29;20417;-81
2023/01/19 07:33:44;;;;;;;63.97;9.18;;;;;;;15.33;32.60;94148.13;4933933;28;20046;-78
2023/01/19 07:36:10;;;;;;;70.15;8.73;;;;;;;15.10;32.04;94093.53;4931070;28;20024;-78
2023/01/19 07:38:35;;;;;;;70.97;7.93;;;;;;;15.49;32.35;94159.00;4930599;28;20043;-80
2023/01/19 07:41:06;;;;;;;79.40;8.80;;;;;;;15.41;32.59;94182.00;4936921;28;20043;-80
2023/01/19 07:43:32;;;;;;;82.00;9.40;;;;;;;15.52;32.95;94155.66;4932925;28;20375;-80
2023/01/19 07:45:59;;;;;;;46.92;7.47;;;;;;;15.22;32.65;94090.91;4928607;28;20486;-80
2023/01/19 07:48:25;;;;;;;55.00;7.18;;;;;;;15.51;32.47;94148.75;4910288;28;20047;-80
2023/01/19 07:50:51;;;;;;;50.33;8.20;;;;;;;15.31;32.37;94112.97;4909356;29;20035;-80
2023/01/19 07:53:19;;;;;;;79.10;9.85;;;;;;;15.09;32.34;94080.50;4909266;29;20031;-84
2023/01/19 07:55:44;;;;;;;68.18;8.65;;;;;;;15.42;31.99;94111.44;4913571;29;20172;-79
2023/01/19 07:58:10;;;;;;;69.97;9.82;;;;;;;14.98;31.96;94064.88;4919185;29;20043;-85
2023/01/19 08:00:38;;;;;;;60.00;8.10;;;;;;;15.22;31.76;94071.41;4932689;28;20113;-83
2023/01/19 08:03:04;;;;;;;88.45;8.60;;;;;;;15.34;31.66;94104.28;4912839;29;20569;-83
2023/01/19 08:05:30;;;;;;;54.22;8.68;;;;;;;15.75;31.66;94164.13;4936011;28;20042;-84
2023/01/19 08:07:57;;;;;;;64.28;8.85;;;;;;;14.97;31.79;94044.63;4922886;28;20110;-83
2023/01/19 08:10:25;;;;;;;63.50;9.60;;;;;;;15.79;31.80;94202.47;4933000;28;20079;-81
2023/01/19 08:12:55;;;;;;;59.97;8.60;;;;;;;15.83;31.10;94131.97;4929632;28;20067;-80
2023/01/19 08:15:22;;;;;;;80.85;9.43;;;;;;;15.23;32.17;94089.78;4935106;28;20047;-82
2023/01/19 08:17:58;;;;;;;65.47;7.88;;;;;;;15.84;31.65;94191.56;4933967;28;20552;-82
2023/01/19 08:20:25;;;;;;;89.20;9.07;;;;;;;15.83;31.69;94209.50;4935630;28;20118;-80
2023/01/19 08:22:58;;;;;;;71.07;8.85;;;;;;;15.66;31.71;94134.03;4915715;29;20098;-82
2023/01/19 08:25:32;;;;;;;78.43;8.93;;;;;;;15.66;31.67;94128.69;4912626;28;20703;-80
2023/01/19 08:27:58;;;;;;;67.88;8.45;;;;;;;15.56;31.89;94087.16;4913822;28;20454;-81
2023/01/19 08:30:25;;;;;;;73.03;10.80;;;;;;;15.33;31.47;94072.56;4913640;28;20043;-80
2023/01/19 08:32:53;;;;;;;95.03;11.70;;;;;;;15.60;31.38;94114.75;4933368;28;20663;-81
2023/01/19 08:35:19;;;;;;;74.85;9.13;;;;;;;15.41;31.33;94072.47;4929249;28;20077;-81
2023/01/19 08:37:44;;;;;;;74.82;8.68;;;;;;;15.82;31.10;94121.59;4931756;28;20532;-80
2023/01/19 08:40:10;;;;;;;73.25;8.88;;;;;;;15.64;31.21;94123.66;4930766;28;20395;-80
2023/01/19 08:42:35;;;;;;;66.10;8.65;;;;;;;16.05;31.39;94162.09;4938394;28;20039;-81
2023/01/19 08:45:01;;;;;;;69.88;8.77;;;;;;;15.75;31.86;94127.50;4924532;29;20477;-80
2023/01/19 08:47:26;;;;;;;78.72;10.77;;;;;;;15.25;31.63;94031.50;4941320;28;20031;-83
2023/01/19 08:49:52;;;;;;;68.63;10.93;;;;;;;16.09;31.48;94208.47;4920908;28;20473;-82
2023/01/19 08:52:17;;;;;;;61.63;7.78;;;;;;;15.77;31.80;94135.19;4938222;28;20462;-81
2023/01/19 08:54:42;;;;;;;65.05;8.50;;;;;;;15.65;31.68;94125.22;4933372;28;20042;-83
2023/01/19 08:57:08;;;;;;;57.85;7.97;;;;;;;16.16;31.85;94195.31;4944293;28;20078;-84
2023/01/19 08:59:33;;;;;;;66.63;8.27;;;;;;;15.62;31.69;94112.53;4940284;28;20035;-84
2023/01/19 09:01:59;;;;;;;59.25;8.35;;;;;;;16.17;31.98;94191.53;4920881;28;20035;-85
2023/01/19 09:04:24;;;;;;;59.90;8.57;;;;;;;15.50;31.69;94066.25;4905538;28;21483;-84
2023/01/19 09:06:50;;;;;;;52.50;8.45;;;;;;;16.16;31.81;94189.97;4936423;28;20134;-83
2023/01/19 09:09:16;;;;;;;61.85;8.60;;;;;;;16.17;31.93;94178.16;4916877;28;20071;-83
2023/01/19 09:11:41;;;;;;;64.75;8.57;;;;;;;16.08;31.90;94206.91;4939380;28;20140;-84
2023/01/19 09:14:07;;;;;;;54.50;6.38;;;;;;;16.26;32.03;94165.44;4923237;28;20238;-83
2023/01/19 09:16:33;;;;;;;54.03;7.65;;;;;;;15.73;32.00;94089.63;4923683;29;20094;-84
2023/01/19 09:18:58;;;;;;;62.88;8.57;;;;;;;15.84;32.01;94114.03;4940880;28;20508;-84
2023/01/19 09:21:24;;;;;;;44.42;7.22;;;;;;;16.36;31.86;94188.31;4936831;28;20043;-83
2023/01/19 09:23:50;;;;;;;42.72;6.20;;;;;;;15.74;31.71;94082.38;4935214;28;20035;-82
2023/01/19 09:26:16;;;;;;;52.17;7.15;;;;;;;16.36;31.78;94178.41;4921773;28;20031;-82
2023/01/19 09:28:41;;;;;;;42.13;5.93;;;;;;;16.16;31.67;94153.31;4936229;28;20058;-83
2023/01/19 09:31:07;;;;;;;66.95;7.28;;;;;;;15.89;31.51;94118.38;4922106;28;20191;-84
2023/01/19 09:33:33;;;;;;;52.55;7.25;;;;;;;16.52;31.26;94210.63;4937106;28;20027;-83
2023/01/19 09:35:59;;;;;;;44.20;6.63;;;;;;;16.23;31.61;94147.41;4938811;28;20093;-83
2023/01/19 09:38:25;;;;;;;45.42;6.50;;;;;;;16.33;31.84;94223.75;4922512;28;20039;-85
2023/01/19 09:40:54;;;;;;;40.42;5.65;;;;;;;16.49;31.51;94181.84;4935267;28;20038;-81
2023/01/19 09:43:22;;;;;;;49.10;6.45;;;;;;;16.50;31.51;94194.13;4936784;28;20035;-84
2023/01/19 09:46:05;;;;;;;43.20;6.93;;;;;;;15.88;31.64;94085.50;4922398;28;20517;-82
2023/01/19 09:48:57;;;;;;;49.70;6.50;;;;;;;15.68;31.69;94107.75;4936480;28;20042;-84
2023/01/19 09:51:27;;;;;;;41.20;5.97;;;;;;;15.64;31.61;94051.50;4932766;28;20039;-81
2023/01/19 09:54:16;;;;;;;46.92;5.68;;;;;;;16.58;31.76;94198.59;4913160;28;20047;-80
2023/01/19 09:56:46;;;;;;;35.88;6.15;;;;;;;15.81;31.52;94045.97;4926459;28;20194;-83
2023/01/19 09:59:24;;;;;;;33.65;5.53;;;;;;;15.90;31.75;94085.97;4933333;28;20048;-83
2023/01/19 10:01:58;;;;;;;47.35;6.55;;;;;;;16.21;31.57;94112.19;4930469;28;20035;-79
2023/01/19 10:04:27;;;;;;;32.55;5.95;;;;;;;16.53;31.26;94146.06;4935033;28;20107;-80
2023/01/19 10:07:10;;;;;;;37.80;6.57;;;;;;;16.64;31.19;94145.63;4929652;28;20294;-79
2023/01/19 10:09:40;;;;;;;28.55;5.43;;;;;;;16.26;31.23;94077.16;4917654;29;20047;-82
2023/01/19 10:12:34;;;;;;;49.33;7.55;;;;;;;16.69;31.14;94130.16;4931350;28;21037;-82
2023/01/19 10:15:09;;;;;;;37.45;5.47;;;;;;;16.78;31.20;94151.44;4932446;28;20035;-81
2023/01/19 10:17:59;;;;;;;26.52;4.88;;;;;;;16.53;31.42;94102.47;4915184;28;20466;-81
2023/01/19 10:20:34;;;;;;;30.60;5.88;;;;;;;16.76;31.40;94129.56;4924319;28;20150;-81
2023/01/19 10:23:03;;;;;;;49.40;5.50;;;;;;;16.34;31.69;94073.59;4898976;28;20043;-80
2023/01/19 10:25:29;;;;;;;46.00;5.55;;;;;;;16.85;31.41;94088.16;4931637;28;20035;-83
2023/01/19 10:27:58;;;;;;;38.85;5.35;;;;;;;17.37;30.48;94140.91;4939177;28;20078;-84
2023/01/19 10:30:27;;;;;;;34.03;5.07;;;;;;;17.68;29.66;94100.81;4918309;29;20035;-82
2023/01/19 10:32:53;;;;;;;36.45;6.00;;;;;;;17.83;29.45;94119.97;4909825;28;20427;-80
2023/01/19 10:35:23;;;;;;;36.58;5.07;;;;;;;17.92;29.23;94062.34;4934959;28;20038;-83
2023/01/19 10:38:00;;;;;;;37.67;5.85;;;;;;;17.82;29.53;94111.13;4908034;28;20477;-83
2023/01/19 10:40:56;;;;;;;32.10;4.55;;;;;;;17.31;30.19;94118.94;4930412;28;20035;-81
2023/01/19 10:43:33;;;;;;;28.00;5.00;;;;;;;17.52;30.13;94148.22;4928032;28;20031;-82
2023/01/19 10:46:00;;;;;;;29.20;4.95;;;;;;;17.12;30.17;94118.00;4933694;28;20027;-80
2023/01/19 10:48:25;;;;;;;34.72;5.47;;;;;;;16.60;30.01;94075.91;4926479;28;20139;-79
2023/01/19 10:51:04;;;;;;;32.88;4.95;;;;;;;17.17;30.41;94150.66;4932385;28;20223;-81
2023/01/19 10:53:30;;;;;;;25.77;4.90;;;;;;;17.28;30.49;94153.66;4932851;28;20434;-79
2023/01/19 10:56:28;;;;;;;29.42;4.65;;;;;;;17.38;30.13;94139.81;4913274;29;20043;-82
2023/01/19 10:58:53;;;;;;;33.50;5.10;;;;;;;16.90;30.17;94076.44;4939290;28;20235;-82
2023/01/19 11:01:25;;;;;;;40.92;5.10;;;;;;;17.34;30.22;94144.25;4935554;28;20030;-83
2023/01/19 11:03:52;;;;;;;29.42;4.35;;;;;;;17.04;31.54;94191.22;4934078;28;20031;-83
2023/01/19 11:06:21;;;;;;;34.53;4.40;;;;;;;16.81;32.08;94175.63;4939497;28;20094;-82
2023/01/19 11:08:50;;;;;;;36.78;5.28;;;;;;;16.69;32.22;94113.31;4923418;28;20114;-83
2023/01/19 11:11:17;;;;;;;45.10;5.30;;;;;;;16.64;32.39;94110.84;4932375;28;20039;-85
2023/01/19 11:14:08;;;;;;;31.67;4.72;;;;;;;16.80;32.13;94141.94;4925831;29;20530;-86
2023/01/19 11:16:34;;;;;;;31.73;4.28;;;;;;;16.79;32.37;94152.97;4933417;28;20130;-77
2023/01/19 11:19:02;;;;;;;43.17;5.43;;;;;;;16.76;32.34;94122.31;4927504;28;20058;-79
2023/01/19 11:21:31;;;;;;;22.52;4.85;;;;;;;16.75;31.88;94114.63;4944377;28;20110;-79
2023/01/19 11:24:04;;;;;;;37.03;5.88;;;;;;;16.95;31.81;94111.00;4938399;28;20041;-79
2023/01/19 11:26:39;;;;;;;21.48;4.13;;;;;;;16.73;31.61;94074.78;4950717;28;20129;-80
2023/01/19 11:29:16;;;;;;;31.08;5.25;;;;;;;17.03;31.65;94138.78;4944971;28;20042;-79
2023/01/19 11:31:42;;;;;;;39.80;4.43;;;;;;;16.86;31.41;94083.59;4945397;28;20528;-78
2023/01/19 11:34:36;;;;;;;29.88;4.47;;;;;;;16.85;31.70;94106.91;4949145;28;20469;-79
2023/01/19 11:37:17;;;;;;;36.35;4.93;;;;;;;16.79;31.41;94107.47;4945894;28;20051;-78
2023/01/19 11:39:54;;;;;;;30.73;4.43;;;;;;;16.30;31.46;94067.38;4944510;28;20054;-79